LDSB/BWK METAR and TAF weather

Enter ICAO airport designator
Station Type Date Time Source
LDSB METAR 2020/01/09 13:00 UTC NOAA

LDSB 091300Z 21005KT CAVOK 09/02 Q1025


Station Type Date Time Source
LDSB Decoded METAR 2020/01/09 13:00 UTC NOAA

Brac, Croatia (LDSB) 43-17-09N 016-40-47E
Jan 09, 2020 - 08:00 AM EST / 2020.01.09 1300 UTC
Wind: from the SSW (210 degrees) at 6 MPH (5 KT):0
Visibility: greater than 7 mile(s):0
Temperature: 48 F (9 C)
Dew Point: 35 F (2 C)
Relative Humidity: 61%
Pressure (altimeter): 30.27 in. Hg (1025 hPa)
ob: LDSB 091300Z 21005KT CAVOK 09/02 Q1025
cycle: 13

Station Type Date Time Source
LDSB TAF 2020/01/09 14:33 UTC NOAA

TAF
AMD TAF
AMD LDSB 091430Z 0914/1012 CNL

Example: see airport list